Stewardson, Illinois
Current Conditions -  °F | °C
As of 10:15 AM on Wednesday 26 Nov 2014 (Local Time) from K1H2 Reporting Station
Clear Clear  
Wind Chill: 24°   Ceiling: Unl
Heat Index: 32°   Visibility: 10mi
Dew Point: 26°   Wind: 9mph
Humidity: 79%   Direction: 110°ESE
Pressure: 30.11"   Gusts: NA
Location:  39.26°N, 88.63°W
Report Text: K1H2 261615Z AUTO 11008KT 10SM CLR 00/M03 A3011 RMK AO2 T00001033
Loading
Personal Weather Stations






























Interactive Weather Map New forecast layout! Learn more

10-Day Weather Forecast

Advertisements
Track Severe Weather on mobile